sensor_id;sensor_type;location;lat;lon;timestamp;pressure;altitude;pressure_sealevel;temperature;humidity
6032;BME280;3044;43.232;27.972;2023-01-31T00:01:06;45254.72;;;-143.84;77.35
6032;BME280;3044;43.232;27.972;2023-01-31T00:03:35;45249.00;;;-143.84;77.37
6032;BME280;3044;43.232;27.972;2023-01-31T00:06:14;45262.34;;;-143.84;77.16
6032;BME280;3044;43.232;27.972;2023-01-31T00:08:42;45250.91;;;-143.84;76.70
6032;BME280;3044;43.232;27.972;2023-01-31T00:11:10;45264.25;;;-143.84;76.40
6032;BME280;3044;43.232;27.972;2023-01-31T00:13:38;45247.09;;;-143.84;76.29
6032;BME280;3044;43.232;27.972;2023-01-31T00:16:06;45256.63;;;-143.84;76.50
6032;BME280;3044;43.232;27.972;2023-01-31T00:18:35;45264.25;;;-143.84;76.72
6032;BME280;3044;43.232;27.972;2023-01-31T00:21:08;45254.72;;;-143.84;76.38
6032;BME280;3044;43.232;27.972;2023-01-31T00:23:35;45277.56;;;-143.84;76.55
6032;BME280;3044;43.232;27.972;2023-01-31T00:26:07;45264.25;;;-143.84;76.95
6032;BME280;3044;43.232;27.972;2023-01-31T00:28:35;45243.31;;;-143.84;77.00
6032;BME280;3044;43.232;27.972;2023-01-31T00:31:02;45292.81;;;-143.84;77.07
6032;BME280;3044;43.232;27.972;2023-01-31T00:33:29;45233.78;;;-143.84;76.88
6032;BME280;3044;43.232;27.972;2023-01-31T00:35:57;45235.69;;;-143.84;77.44
6032;BME280;3044;43.232;27.972;2023-01-31T00:38:24;45243.31;;;-143.84;77.47
6032;BME280;3044;43.232;27.972;2023-01-31T00:40:52;45237.59;;;-143.84;77.07
6032;BME280;3044;43.232;27.972;2023-01-31T00:43:20;45243.31;;;-143.84;77.29
6032;BME280;3044;43.232;27.972;2023-01-31T00:45:47;45262.34;;;-143.84;77.14
6032;BME280;3044;43.232;27.972;2023-01-31T00:48:14;45266.16;;;-143.84;77.08
6032;BME280;3044;43.232;27.972;2023-01-31T00:50:41;45279.47;;;-143.84;76.57
6032;BME280;3044;43.232;27.972;2023-01-31T00:53:10;45266.16;;;-143.84;76.19
6032;BME280;3044;43.232;27.972;2023-01-31T00:55:37;45273.78;;;-143.84;76.08
6032;BME280;3044;43.232;27.972;2023-01-31T00:58:04;45252.81;;;-143.84;76.16
6032;BME280;3044;43.232;27.972;2023-01-31T01:00:31;45268.06;;;-143.84;75.81
6032;BME280;3044;43.232;27.972;2023-01-31T01:02:58;45252.81;;;-143.84;75.23
6032;BME280;3044;43.232;27.972;2023-01-31T01:05:26;45273.78;;;-143.84;74.72
6032;BME280;3044;43.232;27.972;2023-01-31T01:07:53;45241.41;;;-143.84;75.42
6032;BME280;3044;43.232;27.972;2023-01-31T01:10:21;45287.09;;;-143.84;75.24
6032;BME280;3044;43.232;27.972;2023-01-31T01:12:48;45262.34;;;-143.84;74.87
6032;BME280;3044;43.232;27.972;2023-01-31T01:15:15;45262.34;;;-143.84;75.01
6032;BME280;3044;43.232;27.972;2023-01-31T01:17:43;45264.25;;;-143.84;75.29
6032;BME280;3044;43.232;27.972;2023-01-31T01:20:10;45241.41;;;-143.84;75.08
6032;BME280;3044;43.232;27.972;2023-01-31T01:22:38;45268.06;;;-143.84;75.24
6032;BME280;3044;43.232;27.972;2023-01-31T01:25:06;45266.16;;;-143.84;74.80
6032;BME280;3044;43.232;27.972;2023-01-31T01:27:35;45260.44;;;-143.84;75.16
6032;BME280;3044;43.232;27.972;2023-01-31T01:30:02;45268.06;;;-143.84;75.30
6032;BME280;3044;43.232;27.972;2023-01-31T01:32:29;45275.66;;;-143.84;75.13
6032;BME280;3044;43.232;27.972;2023-01-31T01:34:56;45269.97;;;-143.84;75.12
6032;BME280;3044;43.232;27.972;2023-01-31T01:37:23;45269.97;;;-143.84;75.52
6032;BME280;3044;43.232;27.972;2023-01-31T01:39:51;45275.66;;;-143.84;75.69
6032;BME280;3044;43.232;27.972;2023-01-31T01:42:20;45290.91;;;-143.84;75.92
6032;BME280;3044;43.232;27.972;2023-01-31T01:44:51;45281.38;;;-143.84;75.24
6032;BME280;3044;43.232;27.972;2023-01-31T01:47:33;45249.00;;;-143.84;75.38
6032;BME280;3044;43.232;27.972;2023-01-31T01:50:07;45268.06;;;-143.84;75.58
6032;BME280;3044;43.232;27.972;2023-01-31T01:52:38;45247.09;;;-143.84;75.76
6032;BME280;3044;43.232;27.972;2023-01-31T01:55:11;45249.00;;;-143.84;75.95
6032;BME280;3044;43.232;27.972;2023-01-31T01:57:41;45250.91;;;-143.84;75.63
6032;BME280;3044;43.232;27.972;2023-01-31T02:00:14;45269.97;;;-143.84;75.72
6032;BME280;3044;43.232;27.972;2023-01-31T02:02:42;45239.50;;;-143.84;75.70
6032;BME280;3044;43.232;27.972;2023-01-31T02:05:11;45231.88;;;-143.84;75.61
6032;BME280;3044;43.232;27.972;2023-01-31T02:07:40;45250.91;;;-143.84;76.22
6032;BME280;3044;43.232;27.972;2023-01-31T02:10:11;45239.50;;;-143.84;76.35
6032;BME280;3044;43.232;27.972;2023-01-31T02:12:40;45239.50;;;-143.84;76.35
6032;BME280;3044;43.232;27.972;2023-01-31T02:15:08;45231.88;;;-143.84;76.00
6032;BME280;3044;43.232;27.972;2023-01-31T02:17:37;45290.91;;;-143.84;76.46
6032;BME280;3044;43.232;27.972;2023-01-31T02:20:15;45258.53;;;-143.84;76.46
6032;BME280;3044;43.232;27.972;2023-01-31T02:23:00;45260.44;;;-143.84;76.76
6032;BME280;3044;43.232;27.972;2023-01-31T02:25:58;45252.81;;;-143.84;77.33
6032;BME280;3044;43.232;27.972;2023-01-31T02:28:51;45237.59;;;-143.84;77.85
6032;BME280;3044;43.232;27.972;2023-01-31T02:31:50;45241.41;;;-143.84;77.91
6032;BME280;3044;43.232;27.972;2023-01-31T02:34:29;45262.34;;;-143.84;78.17
6032;BME280;3044;43.232;27.972;2023-01-31T02:37:08;45237.59;;;-143.84;78.05
6032;BME280;3044;43.232;27.972;2023-01-31T02:39:46;45254.72;;;-143.84;77.77
6032;BME280;3044;43.232;27.972;2023-01-31T02:42:22;45266.16;;;-143.84;78.00
6032;BME280;3044;43.232;27.972;2023-01-31T02:44:58;45226.16;;;-143.84;78.20
6032;BME280;3044;43.232;27.972;2023-01-31T02:47:48;45226.16;;;-143.84;78.24
6032;BME280;3044;43.232;27.972;2023-01-31T02:50:23;45266.16;;;-143.84;78.04
6032;BME280;3044;43.232;27.972;2023-01-31T02:52:57;45245.19;;;-143.84;77.50
6032;BME280;3044;43.232;27.972;2023-01-31T02:55:29;45252.81;;;-143.84;77.84
6032;BME280;3044;43.232;27.972;2023-01-31T02:58:16;45258.53;;;-143.84;77.73
6032;BME280;3044;43.232;27.972;2023-01-31T03:00:46;45241.41;;;-143.84;77.71
6032;BME280;3044;43.232;27.972;2023-01-31T03:03:19;45256.63;;;-143.84;77.39
6032;BME280;3044;43.232;27.972;2023-01-31T03:06:11;45214.72;;;-143.84;77.01
6032;BME280;3044;43.232;27.972;2023-01-31T03:09:04;45249.00;;;-143.84;77.77
6032;BME280;3044;43.232;27.972;2023-01-31T03:11:39;45226.16;;;-143.84;77.54
6032;BME280;3044;43.232;27.972;2023-01-31T03:14:17;45241.41;;;-143.84;77.49
6032;BME280;3044;43.232;27.972;2023-01-31T03:16:51;45205.22;;;-143.84;77.62
6032;BME280;3044;43.232;27.972;2023-01-31T03:19:44;45260.44;;;-143.84;77.72
6032;BME280;3044;43.232;27.972;2023-01-31T03:22:18;45249.00;;;-143.84;77.41
6032;BME280;3044;43.232;27.972;2023-01-31T03:24:50;45243.31;;;-143.84;77.62
6032;BME280;3044;43.232;27.972;2023-01-31T03:27:19;45239.50;;;-143.84;77.54
6032;BME280;3044;43.232;27.972;2023-01-31T03:29:47;45262.34;;;-143.84;78.17
6032;BME280;3044;43.232;27.972;2023-01-31T03:32:19;45249.00;;;-143.84;77.80
6032;BME280;3044;43.232;27.972;2023-01-31T03:34:51;45250.91;;;-143.84;78.07
6032;BME280;3044;43.232;27.972;2023-01-31T03:37:25;45250.91;;;-143.84;78.13
6032;BME280;3044;43.232;27.972;2023-01-31T03:39:59;45212.84;;;-143.84;77.78
6032;BME280;3044;43.232;27.972;2023-01-31T03:42:33;45231.88;;;-143.84;78.21
6032;BME280;3044;43.232;27.972;2023-01-31T03:45:08;45266.16;;;-143.84;78.08
6032;BME280;3044;43.232;27.972;2023-01-31T03:47:38;45239.50;;;-143.84;77.95
6032;BME280;3044;43.232;27.972;2023-01-31T03:50:09;45249.00;;;-143.84;78.50
6032;BME280;3044;43.232;27.972;2023-01-31T03:52:43;45231.88;;;-143.84;78.60
6032;BME280;3044;43.232;27.972;2023-01-31T03:55:16;45249.00;;;-143.84;78.05
6032;BME280;3044;43.232;27.972;2023-01-31T03:57:48;45269.97;;;-143.84;78.46
6032;BME280;3044;43.232;27.972;2023-01-31T04:00:17;45254.72;;;-143.84;79.09
6032;BME280;3044;43.232;27.972;2023-01-31T04:02:48;45254.72;;;-143.84;78.71
6032;BME280;3044;43.232;27.972;2023-01-31T04:05:19;45220.44;;;-143.84;78.72
6032;BME280;3044;43.232;27.972;2023-01-31T04:07:48;45233.78;;;-143.84;78.60
6032;BME280;3044;43.232;27.972;2023-01-31T04:10:17;45245.19;;;-143.84;78.99
6032;BME280;3044;43.232;27.972;2023-01-31T04:12:45;45262.34;;;-143.84;78.68
6032;BME280;3044;43.232;27.972;2023-01-31T04:15:13;45216.63;;;-143.84;78.50
6032;BME280;3044;43.232;27.972;2023-01-31T04:17:41;45235.69;;;-143.84;77.89
6032;BME280;3044;43.232;27.972;2023-01-31T04:20:09;45262.34;;;-143.84;77.91
6032;BME280;3044;43.232;27.972;2023-01-31T04:22:37;45224.25;;;-143.84;77.34
6032;BME280;3044;43.232;27.972;2023-01-31T04:25:07;45243.31;;;-143.84;77.87
6032;BME280;3044;43.232;27.972;2023-01-31T04:27:34;45247.09;;;-143.84;78.06
6032;BME280;3044;43.232;27.972;2023-01-31T04:30:01;45228.06;;;-143.84;78.12
6032;BME280;3044;43.232;27.972;2023-01-31T04:32:28;45235.69;;;-143.84;77.97
6032;BME280;3044;43.232;27.972;2023-01-31T04:34:55;45239.50;;;-143.84;78.14
6032;BME280;3044;43.232;27.972;2023-01-31T04:37:23;45249.00;;;-143.84;77.97
6032;BME280;3044;43.232;27.972;2023-01-31T04:39:50;45207.13;;;-143.84;77.90
6032;BME280;3044;43.232;27.972;2023-01-31T04:42:18;45250.91;;;-143.84;78.23
6032;BME280;3044;43.232;27.972;2023-01-31T04:44:45;45249.00;;;-143.84;77.68
6032;BME280;3044;43.232;27.972;2023-01-31T04:47:12;45222.34;;;-143.84;77.96
6032;BME280;3044;43.232;27.972;2023-01-31T04:49:46;45235.69;;;-143.84;78.28
6032;BME280;3044;43.232;27.972;2023-01-31T04:52:18;45224.25;;;-143.84;78.38
6032;BME280;3044;43.232;27.972;2023-01-31T04:54:45;45254.72;;;-143.84;78.62
6032;BME280;3044;43.232;27.972;2023-01-31T04:57:12;45235.69;;;-143.84;79.31
6032;BME280;3044;43.232;27.972;2023-01-31T04:59:40;45245.19;;;-143.84;79.30
6032;BME280;3044;43.232;27.972;2023-01-31T05:02:08;45212.84;;;-143.84;78.62
6032;BME280;3044;43.232;27.972;2023-01-31T05:04:35;45228.06;;;-143.84;79.01
6032;BME280;3044;43.232;27.972;2023-01-31T05:07:02;45254.72;;;-143.84;78.79
6032;BME280;3044;43.232;27.972;2023-01-31T05:09:29;45241.41;;;-143.84;79.39
6032;BME280;3044;43.232;27.972;2023-01-31T05:11:56;45229.97;;;-143.84;79.12
6032;BME280;3044;43.232;27.972;2023-01-31T05:14:23;45245.19;;;-143.84;78.65
6032;BME280;3044;43.232;27.972;2023-01-31T05:16:53;45231.88;;;-143.84;78.88
6032;BME280;3044;43.232;27.972;2023-01-31T05:19:20;45224.25;;;-143.84;78.87
6032;BME280;3044;43.232;27.972;2023-01-31T05:21:47;45241.41;;;-143.84;79.17
6032;BME280;3044;43.232;27.972;2023-01-31T05:24:25;45231.88;;;-143.84;79.19
6032;BME280;3044;43.232;27.972;2023-01-31T05:26:53;45229.97;;;-143.84;79.79
6032;BME280;3044;43.232;27.972;2023-01-31T05:29:24;45229.97;;;-143.84;79.69
6032;BME280;3044;43.232;27.972;2023-01-31T05:31:53;45216.63;;;-143.84;79.62
6032;BME280;3044;43.232;27.972;2023-01-31T05:34:22;45220.44;;;-143.84;80.14
6032;BME280;3044;43.232;27.972;2023-01-31T05:36:50;45243.31;;;-143.84;80.55
6032;BME280;3044;43.232;27.972;2023-01-31T05:39:17;45222.34;;;-143.84;80.59
6032;BME280;3044;43.232;27.972;2023-01-31T05:41:44;45212.84;;;-143.84;80.30
6032;BME280;3044;43.232;27.972;2023-01-31T05:44:11;45203.31;;;-143.84;80.92
6032;BME280;3044;43.232;27.972;2023-01-31T05:46:39;45220.44;;;-143.84;80.46
6032;BME280;3044;43.232;27.972;2023-01-31T05:49:08;45224.25;;;-143.84;81.05
6032;BME280;3044;43.232;27.972;2023-01-31T05:51:35;45226.16;;;-143.84;80.81
6032;BME280;3044;43.232;27.972;2023-01-31T05:54:03;45212.84;;;-143.84;81.18
6032;BME280;3044;43.232;27.972;2023-01-31T05:56:30;45220.44;;;-143.84;81.79
6032;BME280;3044;43.232;27.972;2023-01-31T05:58:58;45212.84;;;-143.84;81.62
6032;BME280;3044;43.232;27.972;2023-01-31T06:01:27;45191.88;;;-143.84;81.76
6032;BME280;3044;43.232;27.972;2023-01-31T06:03:55;45212.84;;;-143.84;82.19
6032;BME280;3044;43.232;27.972;2023-01-31T06:06:23;45170.94;;;-143.84;82.94
6032;BME280;3044;43.232;27.972;2023-01-31T06:08:50;45146.19;;;-143.84;83.06
6032;BME280;3044;43.232;27.972;2023-01-31T06:11:17;45180.47;;;-143.84;82.98
6032;BME280;3044;43.232;27.972;2023-01-31T06:13:44;45129.03;;;-143.84;83.35
6032;BME280;3044;43.232;27.972;2023-01-31T06:16:13;45180.47;;;-143.84;83.11
6032;BME280;3044;43.232;27.972;2023-01-31T06:18:41;45165.22;;;-143.84;83.19
6032;BME280;3044;43.232;27.972;2023-01-31T06:21:08;45113.81;;;-143.84;83.53
6032;BME280;3044;43.232;27.972;2023-01-31T06:23:38;45155.69;;;-143.84;83.18
6032;BME280;3044;43.232;27.972;2023-01-31T06:26:06;45165.22;;;-143.84;83.17
6032;BME280;3044;43.232;27.972;2023-01-31T06:28:33;45150.00;;;-143.84;83.00
6032;BME280;3044;43.232;27.972;2023-01-31T06:31:05;45146.19;;;-143.84;83.43
6032;BME280;3044;43.232;27.972;2023-01-31T06:33:32;45132.84;;;-143.84;83.53
6032;BME280;3044;43.232;27.972;2023-01-31T06:36:00;45083.34;;;-143.84;83.65
6032;BME280;3044;43.232;27.972;2023-01-31T06:38:28;45142.38;;;-143.84;83.60
6032;BME280;3044;43.232;27.972;2023-01-31T06:40:56;45092.88;;;-143.84;83.95
6032;BME280;3044;43.232;27.972;2023-01-31T06:43:24;45087.16;;;-143.84;83.60
6032;BME280;3044;43.232;27.972;2023-01-31T06:45:51;45096.66;;;-143.84;83.87
6032;BME280;3044;43.232;27.972;2023-01-31T06:48:18;45073.81;;;-143.84;83.98
6032;BME280;3044;43.232;27.972;2023-01-31T06:50:45;45083.34;;;-143.84;84.20
6032;BME280;3044;43.232;27.972;2023-01-31T06:53:12;45062.41;;;-143.84;84.30
6032;BME280;3044;43.232;27.972;2023-01-31T06:55:40;45068.13;;;-143.84;84.32
6032;BME280;3044;43.232;27.972;2023-01-31T06:58:08;45087.16;;;-143.84;84.12
6032;BME280;3044;43.232;27.972;2023-01-31T07:00:35;45058.59;;;-143.84;84.29
6032;BME280;3044;43.232;27.972;2023-01-31T07:03:02;45050.97;;;-143.84;83.97
6032;BME280;3044;43.232;27.972;2023-01-31T07:05:30;45089.06;;;-143.84;83.57
6032;BME280;3044;43.232;27.972;2023-01-31T07:07:57;45119.53;;;-143.84;83.46
6032;BME280;3044;43.232;27.972;2023-01-31T07:10:24;45077.63;;;-143.84;83.38
6032;BME280;3044;43.232;27.972;2023-01-31T07:12:51;45123.34;;;-143.84;83.17
6032;BME280;3044;43.232;27.972;2023-01-31T07:15:19;45115.72;;;-143.84;82.63
6032;BME280;3044;43.232;27.972;2023-01-31T07:17:47;45134.75;;;-143.84;82.58
6032;BME280;3044;43.232;27.972;2023-01-31T07:20:14;45157.59;;;-143.84;82.40
6032;BME280;3044;43.232;27.972;2023-01-31T07:22:41;45186.16;;;-143.84;81.89
6032;BME280;3044;43.232;27.972;2023-01-31T07:25:08;45188.06;;;-143.84;81.64
6032;BME280;3044;43.232;27.972;2023-01-31T07:27:35;45203.31;;;-143.84;81.47
6032;BME280;3044;43.232;27.972;2023-01-31T07:30:03;45172.84;;;-143.84;81.72
6032;BME280;3044;43.232;27.972;2023-01-31T07:32:32;45170.94;;;-143.84;81.17
6032;BME280;3044;43.232;27.972;2023-01-31T07:34:59;45178.56;;;-143.84;81.53
6032;BME280;3044;43.232;27.972;2023-01-31T07:37:26;45189.97;;;-143.84;80.90
6032;BME280;3044;43.232;27.972;2023-01-31T07:39:53;45212.84;;;-143.84;80.53
6032;BME280;3044;43.232;27.972;2023-01-31T07:42:20;45231.88;;;-143.84;80.30
6032;BME280;3044;43.232;27.972;2023-01-31T07:44:47;45222.34;;;-143.84;80.08
6032;BME280;3044;43.232;27.972;2023-01-31T07:47:14;45228.06;;;-143.84;79.89
6032;BME280;3044;43.232;27.972;2023-01-31T07:49:43;45233.78;;;-143.84;79.33
6032;BME280;3044;43.232;27.972;2023-01-31T07:52:10;45209.03;;;-143.84;79.19
6032;BME280;3044;43.232;27.972;2023-01-31T07:54:37;45226.16;;;-143.84;79.19
6032;BME280;3044;43.232;27.972;2023-01-31T07:57:04;45195.69;;;-143.84;79.56
6032;BME280;3044;43.232;27.972;2023-01-31T07:59:31;45245.19;;;-143.84;78.91
6032;BME280;3044;43.232;27.972;2023-01-31T08:01:59;45231.88;;;-143.84;79.19
6032;BME280;3044;43.232;27.972;2023-01-31T08:04:44;45222.34;;;-143.84;79.35
6032;BME280;3044;43.232;27.972;2023-01-31T08:07:11;45222.34;;;-143.84;79.54
6032;BME280;3044;43.232;27.972;2023-01-31T08:09:39;45226.16;;;-143.84;79.33
6032;BME280;3044;43.232;27.972;2023-01-31T08:12:08;45218.53;;;-143.84;78.91
6032;BME280;3044;43.232;27.972;2023-01-31T08:14:35;45212.84;;;-143.84;78.46
6032;BME280;3044;43.232;27.972;2023-01-31T08:17:02;45235.69;;;-143.84;78.78
6032;BME280;3044;43.232;27.972;2023-01-31T08:19:30;45231.88;;;-143.84;78.03
6032;BME280;3044;43.232;27.972;2023-01-31T08:21:59;45239.50;;;-143.84;77.79
6032;BME280;3044;43.232;27.972;2023-01-31T08:24:26;45218.53;;;-143.84;77.45
6032;BME280;3044;43.232;27.972;2023-01-31T08:26:55;45218.53;;;-143.84;77.58
6032;BME280;3044;43.232;27.972;2023-01-31T08:29:22;45212.84;;;-143.84;76.63
6032;BME280;3044;43.232;27.972;2023-01-31T08:31:50;45249.00;;;-143.84;76.56
6032;BME280;3044;43.232;27.972;2023-01-31T08:34:18;45260.44;;;-143.84;76.65
6032;BME280;3044;43.232;27.972;2023-01-31T08:36:45;45254.72;;;-143.84;76.63
6032;BME280;3044;43.232;27.972;2023-01-31T08:39:14;45243.31;;;-143.84;76.62
6032;BME280;3044;43.232;27.972;2023-01-31T08:41:41;45224.25;;;-143.84;76.41
6032;BME280;3044;43.232;27.972;2023-01-31T08:44:08;45264.25;;;-143.84;76.80
6032;BME280;3044;43.232;27.972;2023-01-31T08:46:37;45220.44;;;-143.84;76.78
6032;BME280;3044;43.232;27.972;2023-01-31T08:49:06;45258.53;;;-143.84;76.60
6032;BME280;3044;43.232;27.972;2023-01-31T08:51:33;45228.06;;;-143.84;76.77
6032;BME280;3044;43.232;27.972;2023-01-31T08:54:00;45231.88;;;-143.84;76.23
6032;BME280;3044;43.232;27.972;2023-01-31T08:56:29;45229.97;;;-143.84;76.38
6032;BME280;3044;43.232;27.972;2023-01-31T08:58:56;45279.47;;;-143.84;75.51
6032;BME280;3044;43.232;27.972;2023-01-31T09:01:23;45239.50;;;-143.84;75.44
6032;BME280;3044;43.232;27.972;2023-01-31T09:03:50;45250.91;;;-143.84;75.34
6032;BME280;3044;43.232;27.972;2023-01-31T09:06:23;45241.41;;;-143.84;75.51
6032;BME280;3044;43.232;27.972;2023-01-31T09:08:51;45273.78;;;-143.84;75.02
6032;BME280;3044;43.232;27.972;2023-01-31T09:11:19;45231.88;;;-143.84;75.60
6032;BME280;3044;43.232;27.972;2023-01-31T09:13:48;45247.09;;;-143.84;75.09
6032;BME280;3044;43.232;27.972;2023-01-31T09:16:16;45235.69;;;-143.84;74.05
6032;BME280;3044;43.232;27.972;2023-01-31T09:18:43;45228.06;;;-143.84;73.66
6032;BME280;3044;43.232;27.972;2023-01-31T09:21:12;45224.25;;;-143.84;73.06
6032;BME280;3044;43.232;27.972;2023-01-31T09:23:40;45239.50;;;-143.84;72.99
6032;BME280;3044;43.232;27.972;2023-01-31T09:26:08;45231.88;;;-143.84;72.56
6032;BME280;3044;43.232;27.972;2023-01-31T09:28:35;45243.31;;;-143.84;72.42
6032;BME280;3044;43.232;27.972;2023-01-31T09:31:04;45254.72;;;-143.84;71.97
6032;BME280;3044;43.232;27.972;2023-01-31T09:33:33;45252.81;;;-143.84;72.21
6032;BME280;3044;43.232;27.972;2023-01-31T09:36:02;45218.53;;;-143.84;72.68
6032;BME280;3044;43.232;27.972;2023-01-31T09:38:29;45241.41;;;-143.84;72.70
6032;BME280;3044;43.232;27.972;2023-01-31T09:40:59;45239.50;;;-143.84;72.17
6032;BME280;3044;43.232;27.972;2023-01-31T09:43:29;45235.69;;;-143.84;71.71
6032;BME280;3044;43.232;27.972;2023-01-31T09:46:03;45249.00;;;-143.84;70.98
6032;BME280;3044;43.232;27.972;2023-01-31T09:48:34;45239.50;;;-143.84;70.91
6032;BME280;3044;43.232;27.972;2023-01-31T09:51:04;45224.25;;;-143.84;70.23
6032;BME280;3044;43.232;27.972;2023-01-31T09:53:34;45220.44;;;-143.84;70.59
6032;BME280;3044;43.232;27.972;2023-01-31T09:56:18;45228.06;;;-143.84;70.39
6032;BME280;3044;43.232;27.972;2023-01-31T09:58:54;45249.00;;;-143.84;69.95
6032;BME280;3044;43.232;27.972;2023-01-31T10:01:26;45218.53;;;-143.84;69.26
6032;BME280;3044;43.232;27.972;2023-01-31T10:04:04;45241.41;;;-143.84;68.65
6032;BME280;3044;43.232;27.972;2023-01-31T10:06:42;45228.06;;;-143.84;68.04
6032;BME280;3044;43.232;27.972;2023-01-31T10:09:14;45226.16;;;-143.84;68.41
6032;BME280;3044;43.232;27.972;2023-01-31T10:11:46;45245.19;;;-143.84;69.38
6032;BME280;3044;43.232;27.972;2023-01-31T10:14:23;45258.53;;;-143.84;68.12
6032;BME280;3044;43.232;27.972;2023-01-31T10:17:04;45237.59;;;-143.84;67.60
6032;BME280;3044;43.232;27.972;2023-01-31T10:19:41;45233.78;;;-143.84;68.01
6032;BME280;3044;43.232;27.972;2023-01-31T10:22:12;45239.50;;;-143.84;67.75
6032;BME280;3044;43.232;27.972;2023-01-31T10:24:46;45224.25;;;-143.84;66.64
6032;BME280;3044;43.232;27.972;2023-01-31T10:27:19;45250.91;;;-143.84;66.34
6032;BME280;3044;43.232;27.972;2023-01-31T10:29:53;45224.25;;;-143.84;67.00
6032;BME280;3044;43.232;27.972;2023-01-31T10:32:27;45218.53;;;-143.84;66.47
6032;BME280;3044;43.232;27.972;2023-01-31T10:35:00;45228.06;;;-143.84;67.03
6032;BME280;3044;43.232;27.972;2023-01-31T10:37:33;45243.31;;;-143.84;65.99
6032;BME280;3044;43.232;27.972;2023-01-31T10:40:04;45224.25;;;-143.84;65.65
6032;BME280;3044;43.232;27.972;2023-01-31T10:42:34;45231.88;;;-143.84;66.26
6032;BME280;3044;43.232;27.972;2023-01-31T10:45:11;45231.88;;;-143.84;64.85
6032;BME280;3044;43.232;27.972;2023-01-31T10:47:48;45235.69;;;-143.84;65.01
6032;BME280;3044;43.232;27.972;2023-01-31T10:50:18;45226.16;;;-143.84;66.37
6032;BME280;3044;43.232;27.972;2023-01-31T10:52:58;45256.63;;;-143.84;65.39
6032;BME280;3044;43.232;27.972;2023-01-31T10:55:47;45229.97;;;-143.84;65.06
6032;BME280;3044;43.232;27.972;2023-01-31T10:58:20;45226.16;;;-143.84;64.17
6032;BME280;3044;43.232;27.972;2023-01-31T11:00:48;45235.69;;;-143.84;63.68
6032;BME280;3044;43.232;27.972;2023-01-31T11:03:18;45243.31;;;-143.84;63.76
6032;BME280;3044;43.232;27.972;2023-01-31T11:05:47;45245.19;;;-143.84;65.79
6032;BME280;3044;43.232;27.972;2023-01-31T11:08:27;45247.09;;;-143.84;64.26
6032;BME280;3044;43.232;27.972;2023-01-31T11:10:56;45245.19;;;-143.84;65.33
6032;BME280;3044;43.232;27.972;2023-01-31T11:13:24;45264.25;;;-143.84;64.89
6032;BME280;3044;43.232;27.972;2023-01-31T11:15:52;45228.06;;;-143.84;65.22
6032;BME280;3044;43.232;27.972;2023-01-31T11:18:29;45235.69;;;-143.84;64.99
6032;BME280;3044;43.232;27.972;2023-01-31T11:20:58;45235.69;;;-143.84;65.50
6032;BME280;3044;43.232;27.972;2023-01-31T11:23:29;45247.09;;;-143.84;65.14
6032;BME280;3044;43.232;27.972;2023-01-31T11:25:58;45252.81;;;-143.84;64.56
6032;BME280;3044;43.232;27.972;2023-01-31T11:28:33;45229.97;;;-143.84;63.94
6032;BME280;3044;43.232;27.972;2023-01-31T11:31:02;45222.34;;;-143.84;64.65
6032;BME280;3044;43.232;27.972;2023-01-31T11:33:40;45226.16;;;-143.84;64.74
6032;BME280;3044;43.232;27.972;2023-01-31T11:36:12;45250.91;;;-143.84;64.28
6032;BME280;3044;43.232;27.972;2023-01-31T11:38:39;45233.78;;;-143.84;64.01
6032;BME280;3044;43.232;27.972;2023-01-31T11:41:31;45237.59;;;-143.84;64.90
6032;BME280;3044;43.232;27.972;2023-01-31T11:44:06;45212.84;;;-143.84;65.11
6032;BME280;3044;43.232;27.972;2023-01-31T11:46:42;45197.59;;;-143.84;64.95
6032;BME280;3044;43.232;27.972;2023-01-31T11:49:12;45201.41;;;-143.84;64.88
6032;BME280;3044;43.232;27.972;2023-01-31T11:51:40;45228.06;;;-143.84;64.04
6032;BME280;3044;43.232;27.972;2023-01-31T11:54:12;45226.16;;;-143.84;64.08
6032;BME280;3044;43.232;27.972;2023-01-31T11:56:43;45237.59;;;-143.84;64.27
6032;BME280;3044;43.232;27.972;2023-01-31T11:59:16;45264.25;;;-143.84;64.78
6032;BME280;3044;43.232;27.972;2023-01-31T12:01:45;45239.50;;;-143.84;65.04
6032;BME280;3044;43.232;27.972;2023-01-31T12:04:17;45218.53;;;-143.84;65.21
6032;BME280;3044;43.232;27.972;2023-01-31T12:06:58;45226.16;;;-143.84;65.98
6032;BME280;3044;43.232;27.972;2023-01-31T12:09:28;45239.50;;;-143.84;66.38
6032;BME280;3044;43.232;27.972;2023-01-31T12:11:57;45222.34;;;-143.84;66.65
6032;BME280;3044;43.232;27.972;2023-01-31T12:14:36;45205.22;;;-143.84;66.47
6032;BME280;3044;43.232;27.972;2023-01-31T12:17:04;45256.63;;;-143.84;66.38
6032;BME280;3044;43.232;27.972;2023-01-31T12:19:48;45214.72;;;-143.84;66.53
6032;BME280;3044;43.232;27.972;2023-01-31T12:22:20;45231.88;;;-143.84;66.43
6032;BME280;3044;43.232;27.972;2023-01-31T12:24:56;45224.25;;;-143.84;66.69
6032;BME280;3044;43.232;27.972;2023-01-31T12:27:39;45228.06;;;-143.84;66.58
6032;BME280;3044;43.232;27.972;2023-01-31T12:30:23;45229.97;;;-143.84;66.46
6032;BME280;3044;43.232;27.972;2023-01-31T12:33:09;45254.72;;;-143.84;66.68
6032;BME280;3044;43.232;27.972;2023-01-31T12:35:59;45245.19;;;-143.84;67.32
6032;BME280;3044;43.232;27.972;2023-01-31T12:38:41;45235.69;;;-143.84;66.46
6032;BME280;3044;43.232;27.972;2023-01-31T12:41:18;45237.59;;;-143.84;67.62
6032;BME280;3044;43.232;27.972;2023-01-31T12:44:01;45205.22;;;-143.84;67.38
6032;BME280;3044;43.232;27.972;2023-01-31T12:46:42;45214.72;;;-143.84;66.53
6032;BME280;3044;43.232;27.972;2023-01-31T12:49:41;45241.41;;;-143.84;66.26
6032;BME280;3044;43.232;27.972;2023-01-31T12:52:19;45249.00;;;-143.84;66.10
6032;BME280;3044;43.232;27.972;2023-01-31T12:54:58;45250.91;;;-143.84;66.63
6032;BME280;3044;43.232;27.972;2023-01-31T12:57:34;45243.31;;;-143.84;67.07
6032;BME280;3044;43.232;27.972;2023-01-31T13:00:15;45252.81;;;-143.84;67.19
6032;BME280;3044;43.232;27.972;2023-01-31T13:05:41;45243.31;;;-143.84;67.85
6032;BME280;3044;43.232;27.972;2023-01-31T13:08:16;45228.06;;;-143.84;68.29
6032;BME280;3044;43.232;27.972;2023-01-31T13:10:46;45262.34;;;-143.84;68.75
6032;BME280;3044;43.232;27.972;2023-01-31T13:13:18;45256.63;;;-143.84;68.91